This is the latest recevied weather packets stored in our database for station/object OK2KJT-11. If no packets are shown the sender has not sent any weather packets the latest 10 day(s).
| Time | Temp. | Humidity | Pressure | Rain* | Wind** | Luminosity | Snow |
|---|---|---|---|---|---|---|---|
| 1788596894 | 12.22° C | 92% | 1020.5 hPa | - | - | - | - |
| 1788596294 | 11.67° C | 92% | 1020.3 hPa | - | - | - | - |
| 1788595695 | 11.67° C | 93% | 1020.2 hPa | - | - | - | - |
| 1788595095 | 11.67° C | 93% | 1020.3 hPa | - | - | - | - |
| 1788594495 | 11.67° C | 92% | 1019.7 hPa | - | - | - | - |
| 1788593896 | 11.67° C | 91% | 1020.1 hPa | - | - | - | - |
| 1788593296 | 11.67° C | 90% | 1019.9 hPa | - | - | - | - |
| 1788592694 | 11.67° C | 91% | 1020.2 hPa | - | - | - | - |
| 1788592095 | 11.67° C | 91% | 1020.1 hPa | - | - | - | - |
| 1788591495 | 11.67° C | 89% | 1019.3 hPa | - | - | - | - |
| 1788590895 | 11.67° C | 89% | 1019.1 hPa | - | - | - | - |
| 1788590296 | 11.67° C | 89% | 1019.2 hPa | - | - | - | - |
| 1788589696 | 12.22° C | 89% | 1019.6 hPa | - | - | - | - |
| 1788589096 | 12.22° C | 88% | 1019.1 hPa | - | - | - | - |
| 1788588497 | 11.67° C | 88% | 1019 hPa | - | - | - | - |
| 1788586697 | 12.22° C | 85% | 1019.1 hPa | - | - | - | - |
| 1788585497 | 12.78° C | 84% | 1019 hPa | - | - | - | - |
| 1788565100 | 21.11° C | 51% | 1015.1 hPa | - | - | - | - |
| 1788564500 | 21.11° C | 51% | 1015.1 hPa | - | - | - | - |
| 1788559703 | 21.67° C | 50% | 1015 hPa | - | - | - | - |
| 1788557305 | 21.11° C | 51% | 1015 hPa | - | - | - | - |
| 1788552508 | 21.11° C | 51% | 1015.3 hPa | - | - | - | - |
| 1788550109 | 21.67° C | 50% | 1015.7 hPa | - | - | - | - |
| 1788549509 | 21.67° C | 50% | 1015.7 hPa | - | - | - | - |
| 1788547110 | 21.67° C | 51% | 1015.6 hPa | - | - | - | - |
* Rain since midnight (hover to see other rain measurements)
** Current wind speed in m/s (hover to see current wind gust speed)